createdAt,value
2022-10-04T00:01:24.353Z,14.40
2022-10-04T00:03:54.462Z,14.40
2022-10-04T00:06:22.928Z,14.50
2022-10-04T00:08:53.727Z,14.60
2022-10-04T00:11:31.030Z,14.60
2022-10-04T00:13:59.218Z,14.70
2022-10-04T00:16:34.800Z,14.70
2022-10-04T00:19:37.730Z,14.80
2022-10-04T00:22:04.374Z,14.80
2022-10-04T00:24:32.093Z,14.80
2022-10-04T00:27:21.544Z,14.90
2022-10-04T00:30:23.348Z,14.90
2022-10-04T00:33:03.105Z,14.90
2022-10-04T00:35:29.831Z,14.90
2022-10-04T00:38:00.944Z,14.90
2022-10-04T00:40:34.345Z,14.90
2022-10-04T00:43:24.004Z,15.00
2022-10-04T00:46:16.187Z,15.00
2022-10-04T00:48:46.523Z,15.10
2022-10-04T00:51:25.033Z,15.10
2022-10-04T00:54:04.532Z,15.10
2022-10-04T00:56:44.995Z,15.10
2022-10-04T00:59:50.741Z,15.10
2022-10-04T01:02:35.813Z,15.10
2022-10-04T01:05:10.564Z,15.20
2022-10-04T01:07:40.933Z,15.20
2022-10-04T01:10:15.342Z,15.20
2022-10-04T01:13:12.321Z,15.20
2022-10-04T01:15:51.261Z,15.20
2022-10-04T01:18:21.013Z,15.20
2022-10-04T01:21:28.953Z,15.20
2022-10-04T01:23:58.695Z,15.20
2022-10-04T01:26:27.991Z,15.20
2022-10-04T01:29:11.866Z,15.20
2022-10-04T01:31:51.983Z,15.20
2022-10-04T01:34:22.958Z,15.30
2022-10-04T01:36:50.414Z,15.30
2022-10-04T01:44:59.172Z,15.40
2022-10-04T01:47:44.630Z,15.40
2022-10-04T01:50:28.768Z,15.40
2022-10-04T01:52:58.405Z,15.40
2022-10-04T01:55:30.369Z,15.40
2022-10-04T01:58:14.625Z,15.40
2022-10-04T02:00:46.283Z,15.40
2022-10-04T02:03:22.236Z,15.40
2022-10-04T02:05:54.278Z,15.40
2022-10-04T02:08:27.917Z,15.50
2022-10-04T02:10:54.683Z,15.50
2022-10-04T02:13:21.346Z,15.50
2022-10-04T02:15:48.248Z,15.50
2022-10-04T02:18:16.863Z,15.50
2022-10-04T02:20:43.551Z,15.50
2022-10-04T02:23:10.514Z,15.50
2022-10-04T02:25:37.809Z,15.60
2022-10-04T02:28:05.276Z,15.50
2022-10-04T02:30:38.731Z,15.50
2022-10-04T02:33:05.784Z,15.60
2022-10-04T02:35:37.618Z,15.60
2022-10-04T02:38:13.528Z,15.60
2022-10-04T02:40:48.910Z,15.60
2022-10-04T02:43:19.846Z,15.50
2022-10-04T02:45:50.274Z,15.60
2022-10-04T02:48:25.650Z,15.60
2022-10-04T02:50:52.684Z,15.60
2022-10-04T02:53:26.482Z,15.60
2022-10-04T02:55:56.292Z,15.60
2022-10-04T02:58:23.986Z,15.60
2022-10-04T03:00:52.667Z,15.60
2022-10-04T03:03:29.082Z,15.60
2022-10-04T03:06:09.548Z,15.60
2022-10-04T03:08:44.661Z,15.60
2022-10-04T03:11:11.687Z,15.60
2022-10-04T03:13:39.234Z,15.60
2022-10-04T03:16:06.229Z,15.60
2022-10-04T03:18:32.890Z,15.60
2022-10-04T03:21:02.351Z,15.60
2022-10-04T03:23:29.857Z,15.60
2022-10-04T03:25:59.925Z,15.60
2022-10-04T03:28:27.817Z,15.60
2022-10-04T03:30:54.558Z,15.60
2022-10-04T03:33:23.292Z,15.60
2022-10-04T03:35:55.106Z,15.60
2022-10-04T03:38:21.991Z,15.60
2022-10-04T03:40:56.353Z,15.60
2022-10-04T03:43:25.648Z,15.60
2022-10-04T03:45:52.471Z,15.70
2022-10-04T03:48:29.005Z,15.70
2022-10-04T03:50:55.689Z,15.70
2022-10-04T03:53:29.673Z,15.70
2022-10-04T03:55:57.104Z,15.70
2022-10-04T03:58:26.616Z,15.70
2022-10-04T04:00:59.522Z,15.70
2022-10-04T04:03:26.204Z,15.70
2022-10-04T04:05:54.212Z,15.70
2022-10-04T04:08:33.415Z,15.70
2022-10-04T04:11:01.680Z,15.80
2022-10-04T04:13:33.678Z,15.70
2022-10-04T04:16:01.325Z,15.70
2022-10-04T04:18:35.486Z,15.80
2022-10-04T04:21:02.952Z,15.80
2022-10-04T04:23:41.629Z,15.80
2022-10-04T04:26:11.456Z,15.80
2022-10-04T04:28:42.867Z,15.80
2022-10-04T04:31:40.949Z,15.80
2022-10-04T04:34:24.314Z,15.80
2022-10-04T04:36:51.088Z,15.90
2022-10-04T04:39:22.303Z,15.80
2022-10-04T04:41:50.787Z,15.90
2022-10-04T04:44:18.062Z,15.80
2022-10-04T04:46:48.542Z,15.80
2022-10-04T04:49:16.841Z,15.90
2022-10-04T04:51:48.122Z,15.90
2022-10-04T04:54:14.833Z,15.90
2022-10-04T04:56:41.565Z,15.90
2022-10-04T04:59:08.210Z,15.90
2022-10-04T05:01:45.872Z,15.90
2022-10-04T05:04:12.840Z,15.90
2022-10-04T05:06:43.751Z,16.00
2022-10-04T05:09:37.535Z,16.00
2022-10-04T05:12:16.375Z,15.90
2022-10-04T05:14:49.854Z,15.90
2022-10-04T05:17:24.398Z,15.90
2022-10-04T05:19:51.457Z,15.90
2022-10-04T05:22:20.240Z,15.90
2022-10-04T05:24:48.253Z,15.90
2022-10-04T05:27:35.685Z,15.90
2022-10-04T05:30:04.267Z,15.90
2022-10-04T05:32:37.156Z,15.90
2022-10-04T05:35:15.218Z,15.90
2022-10-04T05:38:03.141Z,15.90
2022-10-04T05:40:35.566Z,15.80
2022-10-04T05:43:02.259Z,15.80
2022-10-04T05:45:29.992Z,15.80
2022-10-04T05:47:57.819Z,15.70
2022-10-04T05:50:41.751Z,15.60
2022-10-04T05:53:19.684Z,15.60
2022-10-04T05:56:10.809Z,15.60
2022-10-04T05:58:58.669Z,15.60
2022-10-04T06:02:00.733Z,15.50
2022-10-04T06:04:41.021Z,15.50
2022-10-04T06:07:46.430Z,15.50
2022-10-04T06:10:41.020Z,15.50
2022-10-04T06:13:15.158Z,15.50
2022-10-04T06:16:06.912Z,15.50
2022-10-04T06:18:43.213Z,15.50
2022-10-04T06:21:16.852Z,15.60
2022-10-04T06:23:50.337Z,15.50
2022-10-04T06:26:25.560Z,15.60
2022-10-04T06:29:00.886Z,15.60
2022-10-04T06:31:27.530Z,15.60
2022-10-04T06:34:12.228Z,15.60
2022-10-04T06:37:00.159Z,15.70
2022-10-04T06:39:33.100Z,15.70
2022-10-04T06:42:27.942Z,15.70
2022-10-04T06:45:02.921Z,15.80
2022-10-04T06:47:53.828Z,15.80
2022-10-04T06:50:43.337Z,15.80
2022-10-04T06:53:24.025Z,15.90
2022-10-04T06:56:09.201Z,15.90
2022-10-04T06:58:51.582Z,15.90
2022-10-04T07:01:26.245Z,15.90
2022-10-04T07:04:08.248Z,16.00
2022-10-04T07:06:41.025Z,16.00
2022-10-04T07:09:13.013Z,16.00
2022-10-04T07:11:53.152Z,16.10
2022-10-04T07:14:33.150Z,16.10
2022-10-04T07:17:03.879Z,16.20
2022-10-04T07:19:49.836Z,16.20
2022-10-04T07:22:20.131Z,16.30
2022-10-04T07:25:01.755Z,16.20
2022-10-04T07:27:28.427Z,16.30
2022-10-04T07:29:55.774Z,16.30
2022-10-04T07:32:25.509Z,16.30
2022-10-04T07:35:10.292Z,16.30
2022-10-04T07:38:07.451Z,16.40
2022-10-04T07:40:37.017Z,16.40
2022-10-04T07:43:09.121Z,16.40
2022-10-04T07:45:38.025Z,16.40
2022-10-04T07:48:18.172Z,16.40
2022-10-04T07:51:05.397Z,16.40
2022-10-04T07:53:44.950Z,16.40
2022-10-04T07:56:12.937Z,16.50
2022-10-04T07:59:05.312Z,16.50
2022-10-04T08:01:57.899Z,16.60
2022-10-04T08:04:53.789Z,16.70
2022-10-04T08:07:26.035Z,16.80
2022-10-04T08:10:26.962Z,16.90
2022-10-04T08:13:15.134Z,17.00
2022-10-04T08:15:42.811Z,17.10
2022-10-04T08:18:41.558Z,17.10
2022-10-04T08:21:09.193Z,17.20
2022-10-04T08:23:54.737Z,17.30
2022-10-04T08:26:40.155Z,17.30
2022-10-04T08:29:18.725Z,17.30
2022-10-04T08:32:00.723Z,17.40
2022-10-04T08:34:44.539Z,17.40
2022-10-04T08:37:35.940Z,17.50
2022-10-04T08:40:36.434Z,17.70
2022-10-04T08:43:21.756Z,17.80
2022-10-04T08:46:06.663Z,17.90
2022-10-04T08:48:36.434Z,18.10
2022-10-04T08:51:23.943Z,18.20
2022-10-04T08:54:29.101Z,18.40
2022-10-04T08:57:05.622Z,18.60
2022-10-04T08:59:57.194Z,18.70
2022-10-04T09:03:00.855Z,18.80
2022-10-04T09:05:34.059Z,18.80
2022-10-04T09:08:18.160Z,18.80
2022-10-04T09:11:14.999Z,18.80
2022-10-04T09:13:45.736Z,18.80
2022-10-04T09:16:31.244Z,18.80
2022-10-04T09:19:19.371Z,18.80
2022-10-04T09:22:10.139Z,18.80
2022-10-04T09:25:01.172Z,18.90
2022-10-04T09:27:57.796Z,19.00
2022-10-04T09:30:47.055Z,19.00
2022-10-04T09:33:39.290Z,19.10
2022-10-04T09:36:09.012Z,19.20
2022-10-04T09:38:38.830Z,19.40
2022-10-04T09:41:24.021Z,19.50
2022-10-04T09:44:09.094Z,19.60
2022-10-04T09:47:13.320Z,20.00
2022-10-04T09:50:04.541Z,20.50
2022-10-04T09:53:00.884Z,21.30
2022-10-04T09:55:39.646Z,21.70
2022-10-04T09:58:09.213Z,21.80
2022-10-04T10:00:47.579Z,22.10
2022-10-04T10:03:32.817Z,22.20
2022-10-04T10:06:18.401Z,22.30
2022-10-04T10:08:48.675Z,22.60
2022-10-04T10:11:15.342Z,23.10
2022-10-04T10:13:59.661Z,22.90
2022-10-04T10:16:48.706Z,22.50
2022-10-04T10:19:41.272Z,22.00
2022-10-04T10:22:23.167Z,21.40
2022-10-04T10:25:04.720Z,20.80
2022-10-04T10:28:19.349Z,20.30
2022-10-04T10:30:56.028Z,19.90
2022-10-04T10:34:03.952Z,19.60
2022-10-04T10:36:36.950Z,19.40
2022-10-04T10:39:18.952Z,19.50
2022-10-04T10:42:26.366Z,19.50
2022-10-04T10:45:21.159Z,19.40
2022-10-04T10:48:21.038Z,19.50
2022-10-04T10:51:06.408Z,19.50
2022-10-04T10:53:51.575Z,19.60
2022-10-04T10:56:21.031Z,19.70
2022-10-04T10:58:50.854Z,19.70
2022-10-04T11:01:17.545Z,19.70
2022-10-04T11:03:56.206Z,19.90
2022-10-04T11:06:31.358Z,20.40
2022-10-04T11:09:09.742Z,20.80
2022-10-04T11:11:54.520Z,21.00
2022-10-04T11:14:33.155Z,21.00
2022-10-04T11:17:37.561Z,20.80
2022-10-04T11:20:22.681Z,20.60
2022-10-04T11:23:08.366Z,20.50
2022-10-04T11:26:02.926Z,20.50
2022-10-04T11:29:03.110Z,20.50
2022-10-04T11:31:41.892Z,20.50
2022-10-04T11:34:47.678Z,20.30
2022-10-04T11:37:53.063Z,20.10
2022-10-04T11:40:44.348Z,19.90
2022-10-04T11:43:20.053Z,19.80
2022-10-04T11:46:22.182Z,19.60
2022-10-04T11:49:14.483Z,19.50
2022-10-04T11:52:19.172Z,19.50
2022-10-04T11:55:04.805Z,19.50
2022-10-04T11:57:42.903Z,19.40
2022-10-04T12:00:19.611Z,19.50
2022-10-04T12:02:55.548Z,19.60
2022-10-04T12:05:25.023Z,19.70
2022-10-04T12:08:01.914Z,19.80
2022-10-04T12:10:38.580Z,19.90
2022-10-04T12:13:17.275Z,20.00
2022-10-04T12:15:53.377Z,20.10
2022-10-04T12:18:25.917Z,20.10
2022-10-04T12:21:11.334Z,20.00
2022-10-04T12:23:57.966Z,19.90
2022-10-04T12:26:50.093Z,19.80
2022-10-04T12:29:48.569Z,19.80
2022-10-04T12:32:33.575Z,19.80
2022-10-04T12:35:11.105Z,19.70
2022-10-04T12:37:52.488Z,19.60
2022-10-04T12:40:31.436Z,19.40
2022-10-04T12:43:09.042Z,19.40
2022-10-04T12:45:56.323Z,19.30
2022-10-04T12:48:27.909Z,19.20
2022-10-04T12:51:17.269Z,19.10
2022-10-04T12:53:54.502Z,19.10
2022-10-04T12:56:52.507Z,19.00
2022-10-04T12:59:34.506Z,18.90
2022-10-04T13:02:23.991Z,18.80
2022-10-04T13:05:00.051Z,18.90
2022-10-04T13:07:45.028Z,18.90
2022-10-04T13:10:25.360Z,19.00
2022-10-04T13:13:10.630Z,19.00
2022-10-04T13:18:53.590Z,19.00
2022-10-04T13:21:41.568Z,18.90
2022-10-04T13:24:26.284Z,18.90
2022-10-04T13:26:58.765Z,18.90
2022-10-04T13:29:31.518Z,18.80
2022-10-04T13:32:21.038Z,18.90
2022-10-04T13:35:13.338Z,19.10
2022-10-04T13:38:05.015Z,19.20
2022-10-04T13:40:40.726Z,19.40
2022-10-04T13:43:13.239Z,19.50
2022-10-04T13:45:49.158Z,19.70
2022-10-04T13:48:27.883Z,19.80
2022-10-04T13:51:15.715Z,19.90
2022-10-04T13:54:13.230Z,20.00
2022-10-04T13:56:49.790Z,19.90
2022-10-04T13:59:36.877Z,19.80
2022-10-04T14:02:18.358Z,19.80
2022-10-04T14:04:59.973Z,19.70
2022-10-04T14:07:52.273Z,19.70
2022-10-04T14:10:42.593Z,19.60
2022-10-04T14:13:31.188Z,19.60
2022-10-04T14:16:16.316Z,19.50
2022-10-04T14:19:04.515Z,19.50
2022-10-04T14:21:59.107Z,19.60
2022-10-04T14:24:52.590Z,19.60
2022-10-04T14:27:41.710Z,19.60
2022-10-04T14:30:29.971Z,19.50
2022-10-04T14:33:23.156Z,19.40
2022-10-04T14:36:08.366Z,19.40
2022-10-04T14:39:09.028Z,19.40
2022-10-04T14:41:45.235Z,19.40
2022-10-04T14:44:42.858Z,19.50
2022-10-04T14:47:11.678Z,19.50
2022-10-04T14:50:15.631Z,19.50
2022-10-04T14:53:19.915Z,19.60
2022-10-04T14:56:20.373Z,19.50
2022-10-04T14:58:53.727Z,19.40
2022-10-04T15:01:24.468Z,19.30
2022-10-04T15:04:18.999Z,19.20
2022-10-04T15:06:56.869Z,19.10
2022-10-04T15:09:48.132Z,19.00
2022-10-04T15:13:08.919Z,18.90
2022-10-04T15:15:26.021Z,18.90
2022-10-04T15:17:52.825Z,18.70
2022-10-04T15:20:32.708Z,18.70
2022-10-04T15:23:14.543Z,18.60
2022-10-04T15:25:42.634Z,18.60
2022-10-04T15:28:32.053Z,18.60
2022-10-04T15:31:29.660Z,18.70
2022-10-04T15:34:07.727Z,18.70
2022-10-04T15:36:52.377Z,18.70
2022-10-04T15:39:57.867Z,18.70
2022-10-04T15:42:27.185Z,18.80
2022-10-04T15:45:59.407Z,18.80
2022-10-04T15:48:49.675Z,18.80
2022-10-04T15:51:19.250Z,18.70
2022-10-04T15:53:57.967Z,18.70
2022-10-04T15:56:39.705Z,18.60
2022-10-04T15:59:25.296Z,18.60
2022-10-04T16:01:58.470Z,18.50
2022-10-04T16:04:31.297Z,18.50
2022-10-04T16:07:06.835Z,18.50
2022-10-04T16:09:46.931Z,18.40
2022-10-04T16:12:31.291Z,18.30
2022-10-04T16:14:57.941Z,18.30
2022-10-04T16:17:43.529Z,18.30
2022-10-04T16:20:33.258Z,18.20
2022-10-04T16:23:28.917Z,18.20
2022-10-04T16:26:06.093Z,18.20
2022-10-04T16:28:57.475Z,18.20
2022-10-04T16:31:46.462Z,18.20
2022-10-04T16:34:22.187Z,18.10
2022-10-04T16:36:55.046Z,18.20
2022-10-04T16:39:52.913Z,18.20
2022-10-04T16:42:22.762Z,18.20
2022-10-04T16:45:06.464Z,18.10
2022-10-04T16:47:35.617Z,18.10
2022-10-04T16:50:02.325Z,18.10
2022-10-04T16:52:47.214Z,18.00
2022-10-04T16:55:49.649Z,18.00
2022-10-04T16:58:28.576Z,18.00
2022-10-04T17:01:24.614Z,17.90
2022-10-04T17:03:54.276Z,17.90
2022-10-04T17:06:32.768Z,17.90
2022-10-04T17:09:18.290Z,17.90
2022-10-04T17:11:45.914Z,17.80
2022-10-04T17:14:36.920Z,17.80
2022-10-04T17:17:23.254Z,17.80
2022-10-04T17:20:02.946Z,17.80
2022-10-04T17:23:01.807Z,17.80
2022-10-04T17:25:31.682Z,17.70
2022-10-04T17:28:02.828Z,17.70
2022-10-04T17:30:38.276Z,17.70
2022-10-04T17:33:31.442Z,17.70
2022-10-04T17:36:01.071Z,17.70
2022-10-04T17:38:30.801Z,17.60
2022-10-04T17:41:23.343Z,17.60
2022-10-04T17:43:53.246Z,17.50
2022-10-04T17:46:23.720Z,17.50
2022-10-04T17:48:55.388Z,17.50
2022-10-04T17:51:41.283Z,17.50
2022-10-04T17:54:16.605Z,17.50
2022-10-04T17:57:19.634Z,17.40
2022-10-04T17:59:47.989Z,17.40
2022-10-04T18:03:00.583Z,17.30
2022-10-04T18:05:41.248Z,17.30
2022-10-04T18:08:07.953Z,17.30
2022-10-04T18:10:38.150Z,17.20
2022-10-04T18:13:20.190Z,17.20
2022-10-04T18:16:04.444Z,17.20
2022-10-04T18:18:37.361Z,17.20
2022-10-04T18:21:04.989Z,17.20
2022-10-04T18:23:34.049Z,17.20
2022-10-04T18:26:09.920Z,17.20
2022-10-04T18:28:36.630Z,17.20
2022-10-04T18:31:30.690Z,17.20
2022-10-04T18:34:19.146Z,17.20
2022-10-04T18:37:04.107Z,17.20
2022-10-04T18:39:30.840Z,17.10
2022-10-04T18:42:14.818Z,17.10
2022-10-04T18:44:49.478Z,17.10
2022-10-04T18:47:29.530Z,17.10
2022-10-04T18:49:56.217Z,17.10
2022-10-04T18:52:54.281Z,17.10
2022-10-04T18:55:20.924Z,17.10
2022-10-04T18:58:18.453Z,17.10
2022-10-04T19:00:50.309Z,17.10
2022-10-04T19:03:45.062Z,17.10
2022-10-04T19:06:34.693Z,17.10
2022-10-04T19:09:07.195Z,17.10
2022-10-04T19:12:00.442Z,17.10
2022-10-04T19:15:11.501Z,17.00
2022-10-04T19:17:46.762Z,16.90
2022-10-04T19:20:40.241Z,16.90
2022-10-04T19:23:22.111Z,16.90
2022-10-04T19:26:30.441Z,16.90
2022-10-04T19:28:50.345Z,16.80
2022-10-04T19:31:21.595Z,16.80
2022-10-04T19:34:08.430Z,16.80
2022-10-04T19:36:44.824Z,16.70
2022-10-04T19:39:30.332Z,16.80
2022-10-04T19:42:17.093Z,16.70
2022-10-04T19:44:52.619Z,16.70
2022-10-04T19:47:58.190Z,16.70
2022-10-04T19:50:35.833Z,16.70
2022-10-04T19:53:15.560Z,16.70
2022-10-04T19:55:51.318Z,16.70
2022-10-04T19:58:24.251Z,16.70
2022-10-04T20:00:51.032Z,16.70
2022-10-04T20:03:17.764Z,16.70
2022-10-04T20:05:48.947Z,16.70
2022-10-04T20:08:37.572Z,16.70
2022-10-04T20:11:33.811Z,16.70
2022-10-04T20:14:03.285Z,16.70
2022-10-04T20:16:53.061Z,16.60
2022-10-04T20:19:29.012Z,16.60
2022-10-04T20:21:56.107Z,16.60
2022-10-04T20:24:37.830Z,16.60
2022-10-04T20:27:05.211Z,16.60
2022-10-04T20:29:38.148Z,16.70
2022-10-04T20:32:05.140Z,16.70
2022-10-04T20:34:37.843Z,16.70
2022-10-04T20:37:06.726Z,16.70
2022-10-04T20:40:02.874Z,16.80
2022-10-04T20:42:29.626Z,16.80
2022-10-04T20:45:11.973Z,16.80
2022-10-04T20:47:43.108Z,16.80
2022-10-04T20:50:10.078Z,16.80
2022-10-04T20:52:36.795Z,16.80
2022-10-04T20:55:09.408Z,16.80
2022-10-04T20:57:40.415Z,16.80
2022-10-04T21:00:19.225Z,16.70
2022-10-04T21:02:46.111Z,16.70
2022-10-04T21:05:22.964Z,16.80
2022-10-04T21:07:49.870Z,16.80
2022-10-04T21:10:20.367Z,16.80
2022-10-04T21:12:47.368Z,16.80
2022-10-04T21:15:17.350Z,16.80
2022-10-04T21:18:05.129Z,16.80
2022-10-04T21:20:41.654Z,16.80
2022-10-04T21:23:27.440Z,16.90
2022-10-04T21:25:54.245Z,16.90
2022-10-04T21:28:30.562Z,16.90
2022-10-04T21:30:57.475Z,16.90
2022-10-04T21:33:24.230Z,16.90
2022-10-04T21:35:51.446Z,16.90
2022-10-04T21:38:18.858Z,16.90
2022-10-04T21:40:45.589Z,16.90
2022-10-04T21:43:12.229Z,16.90
2022-10-04T21:45:38.989Z,16.90
2022-10-04T21:48:05.685Z,16.90
2022-10-04T21:50:32.369Z,16.90
2022-10-04T21:52:59.054Z,16.90
2022-10-04T21:55:25.871Z,16.90
2022-10-04T21:57:52.538Z,16.90
2022-10-04T22:00:19.262Z,16.90
2022-10-04T22:02:46.076Z,16.90
2022-10-04T22:05:12.857Z,16.90
2022-10-04T22:07:39.589Z,16.90
2022-10-04T22:10:06.463Z,16.90
2022-10-04T22:12:33.174Z,16.90
2022-10-04T22:14:59.819Z,16.90
2022-10-04T22:17:26.486Z,16.90
2022-10-04T22:19:53.143Z,16.90
2022-10-04T22:22:19.877Z,16.90
2022-10-04T22:24:46.602Z,16.90
2022-10-04T22:27:14.540Z,16.90
2022-10-04T22:29:41.538Z,16.90
2022-10-04T22:32:38.299Z,16.90
2022-10-04T22:35:13.320Z,16.90
2022-10-04T22:37:39.991Z,16.90
2022-10-04T22:40:32.891Z,16.90
2022-10-04T22:42:59.569Z,16.90
2022-10-04T22:45:30.325Z,16.90
2022-10-04T22:47:58.160Z,16.90
2022-10-04T22:50:31.336Z,16.90
2022-10-04T22:52:58.604Z,16.90
2022-10-04T22:55:25.381Z,16.90
2022-10-04T22:57:52.206Z,16.90
2022-10-04T23:00:18.988Z,16.90
2022-10-04T23:02:45.747Z,16.90
2022-10-04T23:05:14.697Z,16.90
2022-10-04T23:07:42.854Z,16.90
2022-10-04T23:10:10.057Z,16.90
2022-10-04T23:12:36.749Z,16.90
2022-10-04T23:15:03.979Z,16.90
2022-10-04T23:17:35.739Z,16.90
2022-10-04T23:20:13.739Z,16.90
2022-10-04T23:22:42.703Z,16.90
2022-10-04T23:25:15.457Z,16.80
2022-10-04T23:27:42.255Z,16.90
2022-10-04T23:30:16.656Z,16.90
2022-10-04T23:32:44.769Z,16.80
2022-10-04T23:35:16.201Z,16.90
2022-10-04T23:37:42.995Z,16.90
2022-10-04T23:40:10.189Z,16.90
2022-10-04T23:42:36.873Z,16.90
2022-10-04T23:45:06.045Z,16.80
2022-10-04T23:47:34.141Z,16.80
2022-10-04T23:50:00.859Z,16.80
2022-10-04T23:52:36.016Z,16.80
2022-10-04T23:55:02.860Z,16.80
2022-10-04T23:57:29.976Z,16.80
2022-10-04T23:59:58.944Z,16.80
